Cropsey, Illinois
Current Conditions -  °F | °C
As of 8:15 AM on Monday 24 Nov 2014 (Local Time) from KPNT Reporting Station
Light Snow Light Snow  
Wind Chill: 22°   Ceiling: 500
Heat Index: 34°   Visibility: 0.5mi
Dew Point: 33°   Wind: 22mph
Humidity: 98%   Direction: 260°W
Pressure: 29.28"   Gusts: 29mph
Location:  40.61°N, 88.48°W
Report Text: KPNT 241415Z AUTO 26019G25KT 1/2SM -SN OVC005 01/01 A2928 RMK AO2 T00100007
Loading
Personal Weather Stations






























Interactive Weather Map New forecast layout! Learn more

10-Day Weather Forecast

Advertisements
Track Severe Weather on mobile